createdAt,value
2023-01-25T00:00:00.705Z,20.13
2023-01-25T00:05:03.498Z,20.12
2023-01-25T00:10:08.562Z,20.10
2023-01-25T00:15:12.294Z,20.11
2023-01-25T00:20:15.238Z,20.05
2023-01-25T00:25:19.589Z,20.11
2023-01-25T00:30:22.371Z,20.10
2023-01-25T00:35:25.335Z,20.05
2023-01-25T00:40:29.503Z,20.01
2023-01-25T00:45:32.293Z,20.03
2023-01-25T00:50:35.743Z,20.02
2023-01-25T00:55:39.915Z,20.04
2023-01-25T01:00:42.877Z,20.02
2023-01-25T01:05:45.867Z,20.05
2023-01-25T01:10:50.050Z,20.03
2023-01-25T01:15:54.337Z,20.03
2023-01-25T01:20:57.192Z,20.02
2023-01-25T01:26:02.058Z,20.00
2023-01-25T01:31:05.479Z,19.95
2023-01-25T01:36:13.057Z,19.96
2023-01-25T01:41:17.400Z,19.98
2023-01-25T01:46:23.533Z,19.95
2023-01-25T01:51:31.076Z,19.92
2023-01-25T01:56:37.202Z,19.93
2023-01-25T02:01:40.495Z,20.00
2023-01-25T02:06:46.771Z,19.97
2023-01-25T02:11:53.143Z,20.00
2023-01-25T02:16:55.946Z,19.99
2023-01-25T02:21:58.805Z,20.00
2023-01-25T02:27:02.992Z,20.00
2023-01-25T02:32:06.734Z,19.95
2023-01-25T02:37:10.438Z,19.94
2023-01-25T02:42:14.684Z,19.92
2023-01-25T02:47:17.755Z,19.92
2023-01-25T02:52:20.795Z,19.95
2023-01-25T02:57:24.955Z,19.97
2023-01-25T03:02:28.194Z,19.96
2023-01-25T03:07:31.047Z,19.93
2023-01-25T03:12:36.068Z,19.93
2023-01-25T03:17:38.987Z,19.93
2023-01-25T03:22:41.889Z,19.95
2023-01-25T03:27:46.679Z,19.98
2023-01-25T03:32:50.688Z,19.91
2023-01-25T03:37:55.662Z,19.91
2023-01-25T03:43:00.533Z,19.93
2023-01-25T03:48:03.456Z,19.94
2023-01-25T03:53:10.218Z,19.91
2023-01-25T03:58:14.449Z,19.92
2023-01-25T04:03:19.584Z,19.91
2023-01-25T04:08:22.611Z,19.92
2023-01-25T04:13:27.199Z,19.92
2023-01-25T04:18:30.034Z,19.91
2023-01-25T04:23:33.105Z,19.90
2023-01-25T04:28:37.422Z,19.88
2023-01-25T04:33:40.392Z,19.89
2023-01-25T04:38:44.686Z,19.84
2023-01-25T04:43:49.275Z,19.83
2023-01-25T04:48:52.473Z,19.83
2023-01-25T04:53:55.354Z,19.77
2023-01-25T04:59:00.273Z,19.75
2023-01-25T05:04:04.053Z,19.71
2023-01-25T05:09:20.912Z,19.71
2023-01-25T05:14:25.910Z,19.63
2023-01-25T05:19:28.860Z,19.62
2023-01-25T05:24:36.515Z,19.56
2023-01-25T05:29:44.879Z,19.48
2023-01-25T05:34:48.159Z,19.41
2023-01-25T05:39:51.692Z,19.35
2023-01-25T05:44:56.833Z,19.30
2023-01-25T05:50:00.358Z,19.26
2023-01-25T05:55:16.188Z,19.20
2023-01-25T06:00:22.107Z,19.16
2023-01-25T06:05:24.965Z,19.08
2023-01-25T06:10:27.907Z,19.05
2023-01-25T06:15:32.489Z,19.00
2023-01-25T06:21:13.855Z,18.95
2023-01-25T06:26:17.606Z,18.92
2023-01-25T06:31:21.847Z,18.89
2023-01-25T06:36:24.619Z,18.87
2023-01-25T06:41:27.638Z,18.82
2023-01-25T06:46:32.807Z,18.80
2023-01-25T06:51:35.699Z,18.79
2023-01-25T06:56:38.490Z,18.76
2023-01-25T07:01:43.098Z,18.73
2023-01-25T07:06:45.858Z,18.71
2023-01-25T07:11:48.776Z,18.69
2023-01-25T07:16:53.002Z,18.66
2023-01-25T07:21:55.784Z,18.62
2023-01-25T07:26:58.567Z,18.58
2023-01-25T07:32:02.811Z,18.55
2023-01-25T07:37:06.387Z,18.51
2023-01-25T07:42:09.455Z,18.49
2023-01-25T07:47:14.016Z,18.45
2023-01-25T07:52:16.878Z,18.44
2023-01-25T07:57:20.358Z,18.44
2023-01-25T08:02:24.552Z,18.43
2023-01-25T08:07:29.266Z,18.46
2023-01-25T08:12:32.549Z,18.68
2023-01-25T08:17:37.549Z,18.90
2023-01-25T08:22:40.351Z,18.99
2023-01-25T08:27:43.709Z,19.10
2023-01-25T08:32:47.847Z,19.13
2023-01-25T08:37:50.612Z,19.12
2023-01-25T08:42:53.458Z,19.07
2023-01-25T08:47:57.737Z,19.00
2023-01-25T08:53:00.677Z,18.93
2023-01-25T08:58:03.666Z,18.88
2023-01-25T09:03:07.856Z,18.80
2023-01-25T09:08:11.126Z,18.74
2023-01-25T09:13:14.419Z,18.69
2023-01-25T09:18:18.735Z,18.67
2023-01-25T09:23:23.815Z,18.63
2023-01-25T09:28:26.784Z,18.58
2023-01-25T09:33:32.531Z,15.72
2023-01-25T09:38:35.379Z,14.32
2023-01-25T09:43:46.940Z,13.38
2023-01-25T09:49:06.784Z,13.26
2023-01-25T09:54:10.510Z,15.03
2023-01-25T09:59:17.181Z,16.00
2023-01-25T10:04:23.643Z,16.64
2023-01-25T10:09:32.810Z,17.08
2023-01-25T10:14:35.727Z,17.39
2023-01-25T10:19:45.791Z,17.66
2023-01-25T10:25:07.429Z,17.89
2023-01-25T10:30:21.622Z,18.07
2023-01-25T10:35:35.331Z,18.24
2023-01-25T10:40:42.088Z,18.38
2023-01-25T10:45:45.417Z,18.51
2023-01-25T10:50:54.097Z,18.64
2023-01-25T10:56:02.205Z,18.68
2023-01-25T11:01:06.949Z,18.80
2023-01-25T11:06:11.218Z,18.91
2023-01-25T11:11:26.204Z,18.94
2023-01-25T11:16:33.999Z,18.95
2023-01-25T11:21:38.155Z,19.02
2023-01-25T11:26:41.659Z,19.10
2023-01-25T11:31:46.502Z,19.12
2023-01-25T11:37:04.485Z,19.25
2023-01-25T11:42:13.371Z,19.24
2023-01-25T11:47:23.335Z,19.28
2023-01-25T11:52:31.843Z,19.34
2023-01-25T11:57:43.803Z,19.40
2023-01-25T12:02:57.389Z,19.48
2023-01-25T12:08:06.620Z,19.51
2023-01-25T12:13:12.523Z,19.49
2023-01-25T12:18:46.389Z,19.49
2023-01-25T12:23:58.725Z,19.47
2023-01-25T12:29:05.457Z,19.41
2023-01-25T12:34:11.567Z,19.38
2023-01-25T12:39:18.633Z,19.35
2023-01-25T12:44:22.980Z,19.34
2023-01-25T12:49:29.490Z,19.31
2023-01-25T12:54:35.604Z,19.30
2023-01-25T12:59:43.228Z,19.28
2023-01-25T13:04:54.428Z,19.27
2023-01-25T13:10:00.572Z,19.24
2023-01-25T13:15:03.365Z,19.15
2023-01-25T13:20:32.658Z,16.81
2023-01-25T13:25:36.915Z,14.57
2023-01-25T13:30:39.715Z,15.20
2023-01-25T13:35:44.357Z,16.42
2023-01-25T13:40:48.953Z,17.18
2023-01-25T13:45:52.248Z,17.65
2023-01-25T13:50:55.965Z,17.94
2023-01-25T13:56:00.366Z,18.16
2023-01-25T14:01:06.468Z,18.33
2023-01-25T14:06:16.765Z,18.46
2023-01-25T14:11:21.634Z,18.61
2023-01-25T14:16:24.515Z,18.80
2023-01-25T14:21:27.533Z,18.92
2023-01-25T14:26:31.770Z,19.05
2023-01-25T14:31:37.213Z,19.12
2023-01-25T14:36:40.193Z,19.18
2023-01-25T14:41:59.759Z,19.22
2023-01-25T14:47:23.657Z,19.21
2023-01-25T14:52:27.381Z,19.25
2023-01-25T14:57:40.581Z,19.32
2023-01-25T15:02:46.201Z,19.32
2023-01-25T15:07:50.166Z,19.28
2023-01-25T15:13:11.591Z,19.28
2023-01-25T15:18:45.661Z,19.28
2023-01-25T15:23:49.109Z,19.25
2023-01-25T15:28:53.983Z,19.26
2023-01-25T15:33:57.153Z,19.23
2023-01-25T15:39:00.006Z,19.25
2023-01-25T15:44:04.383Z,19.27
2023-01-25T15:49:07.573Z,19.27
2023-01-25T15:54:10.370Z,19.26
2023-01-25T15:59:17.360Z,19.24
2023-01-25T16:04:20.195Z,19.26
2023-01-25T16:09:24.255Z,19.23
2023-01-25T16:14:30.138Z,19.26
2023-01-25T16:19:34.668Z,19.25
2023-01-25T16:24:39.516Z,19.26
2023-01-25T16:29:43.875Z,19.27
2023-01-25T16:34:46.662Z,19.30
2023-01-25T16:39:49.573Z,19.33
2023-01-25T16:44:53.827Z,19.34
2023-01-25T16:49:56.772Z,19.37
2023-01-25T16:54:59.818Z,19.38
2023-01-25T17:00:05.250Z,19.42
2023-01-25T17:05:08.689Z,19.47
2023-01-25T17:10:12.378Z,19.48
2023-01-25T17:15:19.789Z,19.41
2023-01-25T17:20:22.567Z,19.41
2023-01-25T17:25:26.192Z,19.39
2023-01-25T17:30:30.488Z,19.32
2023-01-25T17:35:36.141Z,19.28
2023-01-25T17:40:38.999Z,19.23
2023-01-25T17:45:43.226Z,19.20
2023-01-25T17:50:45.993Z,19.17
2023-01-25T17:55:48.808Z,19.14
2023-01-25T18:00:59.343Z,19.10
2023-01-25T18:06:09.390Z,19.07
2023-01-25T18:11:15.260Z,19.07
2023-01-25T18:16:21.492Z,19.03
2023-01-25T18:21:25.484Z,19.02
2023-01-25T18:26:29.157Z,18.97
2023-01-25T18:31:33.546Z,18.96
2023-01-25T18:36:36.542Z,18.92
2023-01-25T18:41:39.360Z,18.91
2023-01-25T18:46:45.497Z,18.89
2023-01-25T18:52:05.211Z,18.87
2023-01-25T18:57:12.108Z,18.84
2023-01-25T19:02:17.398Z,18.84
2023-01-25T19:07:20.194Z,18.82
2023-01-25T19:12:23.228Z,18.79
2023-01-25T19:17:27.366Z,18.78
2023-01-25T19:22:30.207Z,18.76
2023-01-25T19:27:33.027Z,18.77
2023-01-25T19:32:37.149Z,18.74
2023-01-25T19:37:39.985Z,18.74
2023-01-25T19:42:42.965Z,18.72
2023-01-25T19:47:47.273Z,18.71
2023-01-25T19:52:50.111Z,18.69
2023-01-25T19:57:52.849Z,18.68
2023-01-25T20:03:07.317Z,18.68
2023-01-25T20:08:17.894Z,18.72
2023-01-25T20:13:20.650Z,18.67
2023-01-25T20:18:24.862Z,18.69
2023-01-25T20:23:27.695Z,18.72
2023-01-25T20:28:30.513Z,18.69
2023-01-25T20:33:34.745Z,18.69
2023-01-25T20:38:37.736Z,18.68
2023-01-25T20:43:40.667Z,18.67
2023-01-25T20:48:44.854Z,18.66
2023-01-25T20:53:47.703Z,18.67
2023-01-25T20:58:51.204Z,18.65
2023-01-25T21:03:56.817Z,18.66
2023-01-25T21:08:59.875Z,18.65
2023-01-25T21:14:02.749Z,18.64
2023-01-25T21:19:07.324Z,18.67
2023-01-25T21:24:11.781Z,18.70
2023-01-25T21:29:14.831Z,18.75
2023-01-25T21:34:19.091Z,18.79
2023-01-25T21:39:21.879Z,18.84
2023-01-25T21:44:42.255Z,18.89
2023-01-25T21:50:03.797Z,18.91
2023-01-25T21:55:07.639Z,18.95
2023-01-25T22:00:12.301Z,18.95
2023-01-25T22:05:16.774Z,19.00
2023-01-25T22:10:19.803Z,19.07
2023-01-25T22:15:22.751Z,19.14
2023-01-25T22:20:26.911Z,19.22
2023-01-25T22:25:29.638Z,19.27
2023-01-25T22:30:32.502Z,19.30
2023-01-25T22:35:36.638Z,19.35
2023-01-25T22:40:39.444Z,19.39
2023-01-25T22:45:50.121Z,19.49
2023-01-25T22:50:54.213Z,19.54
2023-01-25T22:56:01.618Z,19.58
2023-01-25T23:01:04.606Z,19.61
2023-01-25T23:06:10.026Z,19.72
2023-01-25T23:11:13.531Z,19.71
2023-01-25T23:16:16.402Z,19.73
2023-01-25T23:21:21.329Z,19.80
2023-01-25T23:26:24.171Z,19.81
2023-01-25T23:31:27.291Z,19.85
2023-01-25T23:36:32.219Z,19.88
2023-01-25T23:41:35.041Z,19.90
2023-01-25T23:46:37.947Z,19.91
2023-01-25T23:51:42.045Z,19.94
2023-01-25T23:56:44.818Z,19.96
